sensor_id;sensor_type;location;lat;lon;timestamp;pressure;altitude;pressure_sealevel;temperature;humidity
41062;BME280;26812;42.662;23.352;2023-04-26T00:01:40;93986.34;;;11.04;78.06
41062;BME280;26812;42.662;23.352;2023-04-26T00:04:06;93994.31;;;11.01;78.60
41062;BME280;26812;42.662;23.352;2023-04-26T00:06:32;93965.81;;;10.87;78.22
41062;BME280;26812;42.662;23.352;2023-04-26T00:08:59;93967.56;;;11.08;77.31
41062;BME280;26812;42.662;23.352;2023-04-26T00:11:24;93969.84;;;10.94;77.90
41062;BME280;26812;42.662;23.352;2023-04-26T00:13:50;93971.16;;;10.72;79.10
41062;BME280;26812;42.662;23.352;2023-04-26T00:16:16;93940.59;;;10.68;79.14
41062;BME280;26812;42.662;23.352;2023-04-26T00:18:42;93936.44;;;10.70;78.76
41062;BME280;26812;42.662;23.352;2023-04-26T00:21:10;93964.50;;;10.81;79.12
41062;BME280;26812;42.662;23.352;2023-04-26T00:23:36;93967.56;;;11.08;77.70
41062;BME280;26812;42.662;23.352;2023-04-26T00:26:01;93945.00;;;10.60;78.84
41062;BME280;26812;42.662;23.352;2023-04-26T00:28:30;93910.47;;;10.38;78.04
41062;BME280;26812;42.662;23.352;2023-04-26T00:30:55;93951.00;;;10.29;80.15
41062;BME280;26812;42.662;23.352;2023-04-26T00:33:25;93929.66;;;10.48;79.47
41062;BME280;26812;42.662;23.352;2023-04-26T00:35:51;93945.44;;;10.62;79.01
41062;BME280;26812;42.662;23.352;2023-04-26T00:38:16;93956.25;;;10.38;80.80
41062;BME280;26812;42.662;23.352;2023-04-26T00:40:41;93950.44;;;10.11;81.84
41062;BME280;26812;42.662;23.352;2023-04-26T00:43:07;93953.88;;;10.61;80.30
41062;BME280;26812;42.662;23.352;2023-04-26T00:45:33;93955.34;;;10.58;80.12
41062;BME280;26812;42.662;23.352;2023-04-26T00:48:01;93953.22;;;10.15;81.63
41062;BME280;26812;42.662;23.352;2023-04-26T00:50:28;93939.66;;;9.99;82.90
41062;BME280;26812;42.662;23.352;2023-04-26T00:52:56;93929.44;;;10.05;83.32
41062;BME280;26812;42.662;23.352;2023-04-26T00:55:22;93946.16;;;10.47;80.35
41062;BME280;26812;42.662;23.352;2023-04-26T00:57:47;93931.38;;;10.41;79.92
41062;BME280;26812;42.662;23.352;2023-04-26T01:00:13;93938.31;;;10.17;81.17
41062;BME280;26812;42.662;23.352;2023-04-26T01:02:40;93928.88;;;9.99;81.88
41062;BME280;26812;42.662;23.352;2023-04-26T01:05:06;93950.31;;;10.32;81.22
41062;BME280;26812;42.662;23.352;2023-04-26T01:07:33;93935.75;;;10.45;79.47
41062;BME280;26812;42.662;23.352;2023-04-26T01:10:01;93955.59;;;10.29;79.66
41062;BME280;26812;42.662;23.352;2023-04-26T01:12:29;93957.34;;;10.00;80.40
41062;BME280;26812;42.662;23.352;2023-04-26T01:14:55;93950.25;;;9.71;82.23
41062;BME280;26812;42.662;23.352;2023-04-26T01:17:21;93946.16;;;9.98;82.14
41062;BME280;26812;42.662;23.352;2023-04-26T01:19:47;93953.28;;;9.70;82.31
41062;BME280;26812;42.662;23.352;2023-04-26T01:22:13;93951.16;;;9.75;82.98
41062;BME280;26812;42.662;23.352;2023-04-26T01:24:40;93915.63;;;9.70;83.10
41062;BME280;26812;42.662;23.352;2023-04-26T01:27:07;93930.91;;;9.90;82.91
41062;BME280;26812;42.662;23.352;2023-04-26T01:29:32;93935.28;;;9.94;81.90
41062;BME280;26812;42.662;23.352;2023-04-26T01:31:58;93926.91;;;10.20;80.13
41062;BME280;26812;42.662;23.352;2023-04-26T01:34:23;93934.72;;;10.01;79.92
41062;BME280;26812;42.662;23.352;2023-04-26T01:36:48;93927.66;;;9.84;80.76
41062;BME280;26812;42.662;23.352;2023-04-26T01:39:14;93924.44;;;9.46;82.10
41062;BME280;26812;42.662;23.352;2023-04-26T01:41:40;93935.47;;;9.77;81.37
41062;BME280;26812;42.662;23.352;2023-04-26T01:44:05;93955.75;;;9.62;80.91
41062;BME280;26812;42.662;23.352;2023-04-26T01:46:31;93963.09;;;9.41;82.38
41062;BME280;26812;42.662;23.352;2023-04-26T01:48:56;93956.84;;;9.16;83.69
41062;BME280;26812;42.662;23.352;2023-04-26T01:51:22;93944.03;;;9.01;84.81
41062;BME280;26812;42.662;23.352;2023-04-26T01:53:47;93952.75;;;9.31;85.29
41062;BME280;26812;42.662;23.352;2023-04-26T01:56:12;93956.59;;;9.42;82.90
41062;BME280;26812;42.662;23.352;2023-04-26T01:58:38;93955.66;;;9.26;84.78
41062;BME280;26812;42.662;23.352;2023-04-26T02:01:07;93946.56;;;9.51;85.10
41062;BME280;26812;42.662;23.352;2023-04-26T02:03:34;93938.94;;;9.53;83.69
41062;BME280;26812;42.662;23.352;2023-04-26T02:06:00;93934.34;;;9.66;83.39
41062;BME280;26812;42.662;23.352;2023-04-26T02:08:25;93946.34;;;9.69;83.06
41062;BME280;26812;42.662;23.352;2023-04-26T02:10:54;93915.59;;;9.45;82.52
41062;BME280;26812;42.662;23.352;2023-04-26T02:13:19;93946.69;;;9.67;82.36
41062;BME280;26812;42.662;23.352;2023-04-26T02:15:46;93938.63;;;9.79;81.35
41062;BME280;26812;42.662;23.352;2023-04-26T02:18:11;93920.56;;;9.68;80.81
41062;BME280;26812;42.662;23.352;2023-04-26T02:20:43;93916.31;;;9.67;81.16
41062;BME280;26812;42.662;23.352;2023-04-26T02:23:11;93907.44;;;9.66;81.05
41062;BME280;26812;42.662;23.352;2023-04-26T02:25:37;93930.69;;;9.95;80.66
41062;BME280;26812;42.662;23.352;2023-04-26T02:28:03;93931.34;;;9.80;79.15
41062;BME280;26812;42.662;23.352;2023-04-26T02:30:29;93939.84;;;9.57;80.39
41062;BME280;26812;42.662;23.352;2023-04-26T02:32:55;93927.78;;;9.30;81.18
41062;BME280;26812;42.662;23.352;2023-04-26T02:35:21;93933.59;;;9.32;83.38
41062;BME280;26812;42.662;23.352;2023-04-26T02:37:47;93919.84;;;9.46;81.80
41062;BME280;26812;42.662;23.352;2023-04-26T02:40:19;93931.84;;;9.49;81.77
41062;BME280;26812;42.662;23.352;2023-04-26T02:42:45;93949.44;;;9.46;82.36
41062;BME280;26812;42.662;23.352;2023-04-26T02:45:10;93937.53;;;9.35;82.88
41062;BME280;26812;42.662;23.352;2023-04-26T02:47:36;93939.78;;;9.33;84.31
41062;BME280;26812;42.662;23.352;2023-04-26T02:50:06;93927.41;;;9.53;84.03
41062;BME280;26812;42.662;23.352;2023-04-26T02:52:32;93908.41;;;9.37;82.95
41062;BME280;26812;42.662;23.352;2023-04-26T02:54:58;93919.88;;;9.58;83.31
41062;BME280;26812;42.662;23.352;2023-04-26T02:57:23;93910.25;;;9.70;82.24
41062;BME280;26812;42.662;23.352;2023-04-26T02:59:49;93911.63;;;9.88;80.24
41062;BME280;26812;42.662;23.352;2023-04-26T03:02:14;93905.34;;;9.96;77.03
41062;BME280;26812;42.662;23.352;2023-04-26T03:04:40;93915.66;;;9.94;77.34
41062;BME280;26812;42.662;23.352;2023-04-26T03:07:06;93919.47;;;9.81;78.02
41062;BME280;26812;42.662;23.352;2023-04-26T03:09:31;93926.41;;;9.70;79.26
41062;BME280;26812;42.662;23.352;2023-04-26T03:11:58;93931.44;;;9.59;80.23
41062;BME280;26812;42.662;23.352;2023-04-26T03:14:24;93903.25;;;9.32;81.52
41062;BME280;26812;42.662;23.352;2023-04-26T03:16:49;93914.28;;;9.51;82.31
41062;BME280;26812;42.662;23.352;2023-04-26T03:19:15;93921.38;;;9.80;80.82
41062;BME280;26812;42.662;23.352;2023-04-26T03:21:40;93907.69;;;9.73;80.06
41062;BME280;26812;42.662;23.352;2023-04-26T03:24:05;93888.75;;;9.82;79.35
41062;BME280;26812;42.662;23.352;2023-04-26T03:26:31;93916.66;;;9.89;79.00
41062;BME280;26812;42.662;23.352;2023-04-26T03:28:57;93919.88;;;9.58;81.80
41062;BME280;26812;42.662;23.352;2023-04-26T03:31:22;93908.91;;;9.76;81.24
41062;BME280;26812;42.662;23.352;2023-04-26T03:33:48;93920.78;;;9.75;82.07
41062;BME280;26812;42.662;23.352;2023-04-26T03:36:14;93922.59;;;9.95;81.94
41062;BME280;26812;42.662;23.352;2023-04-26T03:38:39;93927.66;;;9.96;80.77
41062;BME280;26812;42.662;23.352;2023-04-26T03:41:07;93922.16;;;10.05;79.87
41062;BME280;26812;42.662;23.352;2023-04-26T03:43:32;93915.09;;;10.37;78.55
41062;BME280;26812;42.662;23.352;2023-04-26T03:45:59;93901.97;;;10.11;77.56
41062;BME280;26812;42.662;23.352;2023-04-26T03:48:25;93933.72;;;10.18;79.32
41062;BME280;26812;42.662;23.352;2023-04-26T03:50:51;93934.97;;;10.20;78.29
41062;BME280;26812;42.662;23.352;2023-04-26T03:53:17;93931.34;;;9.80;76.88
41062;BME280;26812;42.662;23.352;2023-04-26T03:55:42;93919.84;;;9.34;77.33
41062;BME280;26812;42.662;23.352;2023-04-26T03:58:08;93935.81;;;9.76;77.86
41062;BME280;26812;42.662;23.352;2023-04-26T04:00:36;93924.84;;;10.05;77.01
41062;BME280;26812;42.662;23.352;2023-04-26T04:03:01;93940.09;;;10.38;75.34
41062;BME280;26812;42.662;23.352;2023-04-26T04:05:27;93935.84;;;10.37;75.84
41062;BME280;26812;42.662;23.352;2023-04-26T04:07:52;93931.16;;;10.21;75.70
41062;BME280;26812;42.662;23.352;2023-04-26T04:10:18;93911.28;;;9.89;76.87
41062;BME280;26812;42.662;23.352;2023-04-26T04:12:43;93946.97;;;10.23;76.33
41062;BME280;26812;42.662;23.352;2023-04-26T04:15:09;93945.69;;;10.08;76.98
41062;BME280;26812;42.662;23.352;2023-04-26T04:17:34;93950.25;;;9.71;78.78
41062;BME280;26812;42.662;23.352;2023-04-26T04:20:01;93952.19;;;10.07;79.33
41062;BME280;26812;42.662;23.352;2023-04-26T04:22:29;93960.75;;;10.34;78.42
41062;BME280;26812;42.662;23.352;2023-04-26T04:24:54;93965.22;;;10.54;76.85
41062;BME280;26812;42.662;23.352;2023-04-26T04:27:20;93965.03;;;10.47;77.39
41062;BME280;26812;42.662;23.352;2023-04-26T04:29:46;93959.81;;;10.66;77.49
41062;BME280;26812;42.662;23.352;2023-04-26T04:32:12;93951.97;;;10.73;76.55
41062;BME280;26812;42.662;23.352;2023-04-26T04:34:39;93968.25;;;11.05;75.10
41062;BME280;26812;42.662;23.352;2023-04-26T04:37:05;93964.19;;;11.11;73.68
41062;BME280;26812;42.662;23.352;2023-04-26T04:39:31;93959.59;;;11.11;74.91
41062;BME280;26812;42.662;23.352;2023-04-26T04:41:56;93946.22;;;11.31;73.89
41062;BME280;26812;42.662;23.352;2023-04-26T04:44:22;93960.03;;;11.57;72.98
41062;BME280;26812;42.662;23.352;2023-04-26T04:46:48;93958.53;;;11.44;74.14
41062;BME280;26812;42.662;23.352;2023-04-26T04:49:13;93956.22;;;11.30;75.88
41062;BME280;26812;42.662;23.352;2023-04-26T04:51:40;93965.41;;;11.41;75.24
41062;BME280;26812;42.662;23.352;2023-04-26T04:54:12;93973.91;;;11.71;72.55
41062;BME280;26812;42.662;23.352;2023-04-26T04:56:39;93983.28;;;11.62;73.27
41062;BME280;26812;42.662;23.352;2023-04-26T04:59:04;93953.13;;;11.72;72.71
41062;BME280;26812;42.662;23.352;2023-04-26T05:01:30;93967.31;;;11.69;71.52
41062;BME280;26812;42.662;23.352;2023-04-26T05:03:59;93962.28;;;11.39;72.88
41062;BME280;26812;42.662;23.352;2023-04-26T05:06:28;93953.53;;;11.30;74.83
41062;BME280;26812;42.662;23.352;2023-04-26T05:08:54;93963.47;;;11.70;74.25
41062;BME280;26812;42.662;23.352;2023-04-26T05:11:20;93965.78;;;11.99;73.67
41062;BME280;26812;42.662;23.352;2023-04-26T05:13:46;93955.84;;;12.19;71.01
41062;BME280;26812;42.662;23.352;2023-04-26T05:16:12;93969.06;;;12.24;70.30
41062;BME280;26812;42.662;23.352;2023-04-26T05:18:37;93955.41;;;12.33;70.16
41062;BME280;26812;42.662;23.352;2023-04-26T05:21:03;93965.47;;;12.52;69.93
41062;BME280;26812;42.662;23.352;2023-04-26T05:23:28;93981.03;;;12.74;69.59
41062;BME280;26812;42.662;23.352;2023-04-26T05:25:54;93972.72;;;12.83;68.03
41062;BME280;26812;42.662;23.352;2023-04-26T05:28:19;93987.84;;;13.03;67.12
41062;BME280;26812;42.662;23.352;2023-04-26T05:30:45;93976.47;;;13.13;67.15
41062;BME280;26812;42.662;23.352;2023-04-26T05:33:11;93972.97;;;13.13;66.81
41062;BME280;26812;42.662;23.352;2023-04-26T05:35:36;93980.78;;;13.33;66.78
41062;BME280;26812;42.662;23.352;2023-04-26T05:38:02;93990.66;;;13.64;65.36
41062;BME280;26812;42.662;23.352;2023-04-26T05:40:28;93993.34;;;13.84;64.06
41062;BME280;26812;42.662;23.352;2023-04-26T05:42:54;93993.97;;;13.96;63.40
41062;BME280;26812;42.662;23.352;2023-04-26T05:45:19;93994.50;;;14.06;62.53
41062;BME280;26812;42.662;23.352;2023-04-26T05:47:44;93990.66;;;14.07;62.66
41062;BME280;26812;42.662;23.352;2023-04-26T05:50:11;94002.88;;;14.66;61.70
41062;BME280;26812;42.662;23.352;2023-04-26T05:52:37;93989.31;;;14.92;59.85
41062;BME280;26812;42.662;23.352;2023-04-26T05:55:02;93983.09;;;14.91;58.74
41062;BME280;26812;42.662;23.352;2023-04-26T05:57:29;93990.50;;;14.95;58.26
41062;BME280;26812;42.662;23.352;2023-04-26T05:59:54;93982.91;;;14.77;59.34
41062;BME280;26812;42.662;23.352;2023-04-26T06:02:20;94001.50;;;14.52;59.66
41062;BME280;26812;42.662;23.352;2023-04-26T06:04:45;94008.91;;;14.55;60.11
41062;BME280;26812;42.662;23.352;2023-04-26T06:07:11;93998.44;;;14.54;60.00
41062;BME280;26812;42.662;23.352;2023-04-26T06:09:36;93992.19;;;14.76;60.15
41062;BME280;26812;42.662;23.352;2023-04-26T06:12:02;93993.91;;;14.88;57.44
41062;BME280;26812;42.662;23.352;2023-04-26T06:14:28;93976.06;;;14.60;57.76
41062;BME280;26812;42.662;23.352;2023-04-26T06:16:53;93987.16;;;14.75;58.08
41062;BME280;26812;42.662;23.352;2023-04-26T06:19:19;93983.25;;;14.72;58.35
41062;BME280;26812;42.662;23.352;2023-04-26T06:21:44;93976.06;;;14.87;57.49
41062;BME280;26812;42.662;23.352;2023-04-26T06:24:10;93998.13;;;15.42;57.67
41062;BME280;26812;42.662;23.352;2023-04-26T06:26:35;93983.84;;;15.78;56.53
41062;BME280;26812;42.662;23.352;2023-04-26T06:29:01;93989.84;;;16.39;54.93
41062;BME280;26812;42.662;23.352;2023-04-26T06:31:26;93990.84;;;16.64;54.14
41062;BME280;26812;42.662;23.352;2023-04-26T06:33:52;93994.81;;;16.74;52.00
41062;BME280;26812;42.662;23.352;2023-04-26T06:36:17;93997.34;;;16.53;52.27
41062;BME280;26812;42.662;23.352;2023-04-26T06:38:42;93991.31;;;16.26;53.33
41062;BME280;26812;42.662;23.352;2023-04-26T06:41:08;93988.84;;;15.76;53.83
41062;BME280;26812;42.662;23.352;2023-04-26T06:43:33;93991.22;;;15.48;55.21
41062;BME280;26812;42.662;23.352;2023-04-26T06:45:58;93989.94;;;15.38;54.21
41062;BME280;26812;42.662;23.352;2023-04-26T06:48:24;93994.75;;;14.92;52.35
41062;BME280;26812;42.662;23.352;2023-04-26T06:50:49;94000.28;;;13.43;55.96
41062;BME280;26812;42.662;23.352;2023-04-26T06:53:15;93999.00;;;13.17;56.68
41062;BME280;26812;42.662;23.352;2023-04-26T06:55:40;94001.19;;;13.70;56.81
41062;BME280;26812;42.662;23.352;2023-04-26T06:58:06;94005.53;;;14.16;54.48
41062;BME280;26812;42.662;23.352;2023-04-26T07:00:31;94001.25;;;14.15;53.87
41062;BME280;26812;42.662;23.352;2023-04-26T07:02:56;94000.28;;;13.81;55.20
41062;BME280;26812;42.662;23.352;2023-04-26T07:05:22;94001.50;;;13.45;54.58
41062;BME280;26812;42.662;23.352;2023-04-26T07:07:48;94002.13;;;13.58;55.48
41062;BME280;26812;42.662;23.352;2023-04-26T07:10:14;93975.41;;;13.76;55.74
41062;BME280;26812;42.662;23.352;2023-04-26T07:12:39;93991.31;;;14.00;55.02
41062;BME280;26812;42.662;23.352;2023-04-26T07:15:05;94012.44;;;14.37;55.04
41062;BME280;26812;42.662;23.352;2023-04-26T07:17:31;93996.25;;;13.94;55.15
41062;BME280;26812;42.662;23.352;2023-04-26T07:19:57;94015.16;;;14.37;54.53
41062;BME280;26812;42.662;23.352;2023-04-26T07:22:22;94000.34;;;14.76;53.13
41062;BME280;26812;42.662;23.352;2023-04-26T07:24:48;94018.16;;;15.04;51.99
41062;BME280;26812;42.662;23.352;2023-04-26T07:27:14;93999.97;;;15.04;52.43
41062;BME280;26812;42.662;23.352;2023-04-26T07:29:46;93996.50;;;15.64;48.08
41062;BME280;26812;42.662;23.352;2023-04-26T07:32:11;93998.84;;;16.02;47.97
41062;BME280;26812;42.662;23.352;2023-04-26T07:34:37;94025.44;;;16.23;48.35
41062;BME280;26812;42.662;23.352;2023-04-26T07:37:02;94016.88;;;16.65;48.55
41062;BME280;26812;42.662;23.352;2023-04-26T07:39:28;94019.09;;;16.97;47.01
41062;BME280;26812;42.662;23.352;2023-04-26T07:41:54;94006.19;;;15.98;47.37
41062;BME280;26812;42.662;23.352;2023-04-26T07:44:19;94016.66;;;15.63;47.13
41062;BME280;26812;42.662;23.352;2023-04-26T07:46:45;94022.91;;;15.40;47.22
41062;BME280;26812;42.662;23.352;2023-04-26T07:49:10;94013.22;;;15.69;47.05
41062;BME280;26812;42.662;23.352;2023-04-26T07:51:36;94026.56;;;16.22;47.30
41062;BME280;26812;42.662;23.352;2023-04-26T07:54:01;94007.19;;;15.87;46.64
41062;BME280;26812;42.662;23.352;2023-04-26T07:56:27;93997.38;;;16.12;46.63
41062;BME280;26812;42.662;23.352;2023-04-26T07:58:52;94013.13;;;15.32;46.53
41062;BME280;26812;42.662;23.352;2023-04-26T08:01:17;94031.81;;;14.84;48.45
41062;BME280;26812;42.662;23.352;2023-04-26T08:03:43;94018.22;;;14.81;48.05
41062;BME280;26812;42.662;23.352;2023-04-26T08:06:08;94020.03;;;14.73;47.33
41062;BME280;26812;42.662;23.352;2023-04-26T08:08:34;94018.31;;;14.62;48.25
41062;BME280;26812;42.662;23.352;2023-04-26T08:11:07;93998.78;;;15.02;48.38
41062;BME280;26812;42.662;23.352;2023-04-26T08:13:33;94020.09;;;15.03;47.59
41062;BME280;26812;42.662;23.352;2023-04-26T08:15:58;94024.25;;;15.83;47.55
41062;BME280;26812;42.662;23.352;2023-04-26T08:18:23;93998.34;;;16.30;45.83
41062;BME280;26812;42.662;23.352;2023-04-26T08:20:49;94013.44;;;16.24;45.55
41062;BME280;26812;42.662;23.352;2023-04-26T08:23:15;94020.22;;;16.89;43.95
41062;BME280;26812;42.662;23.352;2023-04-26T08:25:40;94012.94;;;17.07;43.15
41062;BME280;26812;42.662;23.352;2023-04-26T08:28:06;94015.69;;;17.14;41.94
41062;BME280;26812;42.662;23.352;2023-04-26T08:30:33;94038.72;;;17.27;42.73
41062;BME280;26812;42.662;23.352;2023-04-26T08:32:58;94010.00;;;17.37;42.10
41062;BME280;26812;42.662;23.352;2023-04-26T08:35:24;94003.28;;;17.17;42.42
41062;BME280;26812;42.662;23.352;2023-04-26T08:37:56;94028.41;;;16.96;42.95
41062;BME280;26812;42.662;23.352;2023-04-26T08:40:23;94013.34;;;17.13;43.00
41062;BME280;26812;42.662;23.352;2023-04-26T08:42:49;94022.25;;;17.06;43.97
41062;BME280;26812;42.662;23.352;2023-04-26T08:45:16;94034.03;;;16.69;43.96
41062;BME280;26812;42.662;23.352;2023-04-26T08:47:43;94029.84;;;15.98;44.40
41062;BME280;26812;42.662;23.352;2023-04-26T08:50:13;94040.44;;;14.90;47.53
41062;BME280;26812;42.662;23.352;2023-04-26T08:52:40;94016.25;;;15.04;46.63
41062;BME280;26812;42.662;23.352;2023-04-26T08:55:13;94031.84;;;15.41;46.41
41062;BME280;26812;42.662;23.352;2023-04-26T08:57:41;94011.16;;;15.59;46.12
41062;BME280;26812;42.662;23.352;2023-04-26T09:00:08;94033.19;;;15.88;46.10
41062;BME280;26812;42.662;23.352;2023-04-26T09:02:39;94032.56;;;15.98;45.89
41062;BME280;26812;42.662;23.352;2023-04-26T09:05:05;94037.25;;;16.01;45.11
41062;BME280;26812;42.662;23.352;2023-04-26T09:07:35;94022.13;;;16.03;44.47
41062;BME280;26812;42.662;23.352;2023-04-26T09:10:03;94034.91;;;15.66;45.34
41062;BME280;26812;42.662;23.352;2023-04-26T09:12:29;94021.47;;;15.50;45.74
41062;BME280;26812;42.662;23.352;2023-04-26T09:14:54;94036.53;;;15.14;45.55
41062;BME280;26812;42.662;23.352;2023-04-26T09:17:32;94047.38;;;15.14;45.56
41062;BME280;26812;42.662;23.352;2023-04-26T09:22:51;94037.56;;;15.06;47.14
41062;BME280;26812;42.662;23.352;2023-04-26T09:25:25;94053.09;;;14.82;46.94
41062;BME280;26812;42.662;23.352;2023-04-26T09:27:51;94034.06;;;15.32;45.51
41062;BME280;26812;42.662;23.352;2023-04-26T09:30:17;94040.94;;;15.56;45.39
41062;BME280;26812;42.662;23.352;2023-04-26T09:32:55;94045.84;;;14.90;46.71
41062;BME280;26812;42.662;23.352;2023-04-26T09:38:08;94040.47;;;15.20;46.69
41062;BME280;26812;42.662;23.352;2023-04-26T09:40:55;94044.38;;;14.96;46.32
41062;BME280;26812;42.662;23.352;2023-04-26T09:43:23;94020.50;;;14.79;45.61
41062;BME280;26812;42.662;23.352;2023-04-26T09:45:54;94036.63;;;14.95;46.41
41062;BME280;26812;42.662;23.352;2023-04-26T09:48:36;94029.66;;;15.23;46.36
41062;BME280;26812;42.662;23.352;2023-04-26T09:51:15;93963.69;;;15.16;44.62
41062;BME280;26812;42.662;23.352;2023-04-26T09:53:45;94032.25;;;16.06;43.70
41062;BME280;26812;42.662;23.352;2023-04-26T09:56:18;94032.91;;;16.74;43.16
41062;BME280;26812;42.662;23.352;2023-04-26T10:01:17;94035.94;;;17.17;41.25
41062;BME280;26812;42.662;23.352;2023-04-26T10:03:56;94018.84;;;17.20;41.08
41062;BME280;26812;42.662;23.352;2023-04-26T10:06:54;93929.75;;;17.10;40.95
41062;BME280;26812;42.662;23.352;2023-04-26T10:09:19;93986.88;;;17.79;40.11
41062;BME280;26812;42.662;23.352;2023-04-26T10:14:49;93945.44;;;17.37;40.03
41062;BME280;26812;42.662;23.352;2023-04-26T10:21:01;93933.59;;;15.99;39.96
41062;BME280;26812;42.662;23.352;2023-04-26T10:23:39;93931.13;;;16.24;40.57
41062;BME280;26812;42.662;23.352;2023-04-26T10:35:28;93935.16;;;17.06;38.20
41062;BME280;26812;42.662;23.352;2023-04-26T10:38:10;93929.81;;;17.20;38.05
41062;BME280;26812;42.662;23.352;2023-04-26T10:40:42;93921.91;;;16.39;38.57
41062;BME280;26812;42.662;23.352;2023-04-26T10:45:45;93836.81;;;15.39;39.21
41062;BME280;26812;42.662;23.352;2023-04-26T10:48:32;93961.66;;;16.10;38.25
41062;BME280;26812;42.662;23.352;2023-04-26T10:59:20;94013.13;;;16.36;38.26
41062;BME280;26812;42.662;23.352;2023-04-26T11:02:51;93921.84;;;16.32;37.84
41062;BME280;26812;42.662;23.352;2023-04-26T11:05:47;93892.97;;;16.13;37.02
41062;BME280;26812;42.662;23.352;2023-04-26T11:08:19;93949.41;;;16.82;38.09
41062;BME280;26812;42.662;23.352;2023-04-26T11:11:11;93983.41;;;16.54;36.80
41062;BME280;26812;42.662;23.352;2023-04-26T11:16:07;93989.19;;;16.53;38.07
41062;BME280;26812;42.662;23.352;2023-04-26T11:18:39;94002.63;;;16.79;37.80
41062;BME280;26812;42.662;23.352;2023-04-26T11:21:13;94001.13;;;17.51;37.31
41062;BME280;26812;42.662;23.352;2023-04-26T11:24:03;94013.78;;;18.02;34.90
41062;BME280;26812;42.662;23.352;2023-04-26T11:26:32;93912.63;;;17.09;35.37
41062;BME280;26812;42.662;23.352;2023-04-26T11:29:06;94014.47;;;17.74;34.92
41062;BME280;26812;42.662;23.352;2023-04-26T11:34:46;93883.16;;;16.53;35.57
41062;BME280;26812;42.662;23.352;2023-04-26T11:37:21;93878.94;;;16.07;35.86
41062;BME280;26812;42.662;23.352;2023-04-26T11:39:50;93940.69;;;16.10;36.13
41062;BME280;26812;42.662;23.352;2023-04-26T11:42:33;93924.69;;;15.98;37.51
41062;BME280;26812;42.662;23.352;2023-04-26T11:48:12;93914.34;;;16.18;36.34
41062;BME280;26812;42.662;23.352;2023-04-26T11:50:49;93851.94;;;15.03;36.92
41062;BME280;26812;42.662;23.352;2023-04-26T11:53:45;93957.91;;;16.25;37.25
41062;BME280;26812;42.662;23.352;2023-04-26T11:56:24;94010.09;;;16.89;36.84
41062;BME280;26812;42.662;23.352;2023-04-26T11:58:54;93831.38;;;16.31;36.28
41062;BME280;26812;42.662;23.352;2023-04-26T12:01:33;93914.66;;;17.26;34.42
41062;BME280;26812;42.662;23.352;2023-04-26T12:04:18;93894.34;;;17.02;34.23
41062;BME280;26812;42.662;23.352;2023-04-26T12:06:53;93911.69;;;16.76;35.03
41062;BME280;26812;42.662;23.352;2023-04-26T12:09:59;93860.31;;;16.06;35.54
41062;BME280;26812;42.662;23.352;2023-04-26T12:12:37;93973.94;;;16.85;36.71
41062;BME280;26812;42.662;23.352;2023-04-26T12:15:29;93974.09;;;17.14;35.85
41062;BME280;26812;42.662;23.352;2023-04-26T12:20:37;93960.03;;;17.98;34.43
41062;BME280;26812;42.662;23.352;2023-04-26T12:23:12;93978.97;;;17.59;34.62
41062;BME280;26812;42.662;23.352;2023-04-26T12:25:57;93844.44;;;16.11;35.91
41062;BME280;26812;42.662;23.352;2023-04-26T12:28:43;93902.88;;;16.39;35.88
41062;BME280;26812;42.662;23.352;2023-04-26T12:31:09;93925.53;;;16.57;36.16
41062;BME280;26812;42.662;23.352;2023-04-26T12:33:34;93992.91;;;16.78;35.82
41062;BME280;26812;42.662;23.352;2023-04-26T12:36:10;93987.03;;;17.38;35.82
41062;BME280;26812;42.662;23.352;2023-04-26T12:38:37;93962.00;;;17.07;35.63
41062;BME280;26812;42.662;23.352;2023-04-26T12:41:03;93958.59;;;17.25;34.99
41062;BME280;26812;42.662;23.352;2023-04-26T12:43:29;93979.03;;;16.90;35.12
41062;BME280;26812;42.662;23.352;2023-04-26T12:45:54;93990.19;;;16.78;36.33
41062;BME280;26812;42.662;23.352;2023-04-26T12:48:20;93978.34;;;16.56;36.15
41062;BME280;26812;42.662;23.352;2023-04-26T12:50:45;93972.22;;;15.48;37.96
41062;BME280;26812;42.662;23.352;2023-04-26T12:53:11;93962.41;;;16.07;37.50
41062;BME280;26812;42.662;23.352;2023-04-26T12:55:36;93998.47;;;16.48;37.04
41062;BME280;26812;42.662;23.352;2023-04-26T12:58:02;93953.84;;;16.53;36.66
41062;BME280;26812;42.662;23.352;2023-04-26T13:00:27;93957.63;;;16.89;35.87
41062;BME280;26812;42.662;23.352;2023-04-26T13:02:53;93973.59;;;16.94;36.08
41062;BME280;26812;42.662;23.352;2023-04-26T13:05:20;93960.38;;;16.44;35.94
41062;BME280;26812;42.662;23.352;2023-04-26T13:07:45;93997.97;;;16.35;36.09
41062;BME280;26812;42.662;23.352;2023-04-26T13:10:12;94011.97;;;16.37;36.38
41062;BME280;26812;42.662;23.352;2023-04-26T13:12:37;94006.56;;;15.63;38.85
41062;BME280;26812;42.662;23.352;2023-04-26T13:15:05;93995.16;;;15.54;39.26
41062;BME280;26812;42.662;23.352;2023-04-26T13:17:30;93984.31;;;15.54;39.99
41062;BME280;26812;42.662;23.352;2023-04-26T13:19:56;94019.19;;;15.82;39.61
41062;BME280;26812;42.662;23.352;2023-04-26T13:22:21;93992.69;;;15.72;39.03
41062;BME280;26812;42.662;23.352;2023-04-26T13:24:47;94011.91;;;15.30;40.33
41062;BME280;26812;42.662;23.352;2023-04-26T13:27:12;94019.09;;;15.45;39.93
41062;BME280;26812;42.662;23.352;2023-04-26T13:29:39;94023.69;;;15.67;40.04
41062;BME280;26812;42.662;23.352;2023-04-26T13:32:05;94026.22;;;15.87;39.22
41062;BME280;26812;42.662;23.352;2023-04-26T13:34:31;94019.97;;;15.52;39.95
41062;BME280;26812;42.662;23.352;2023-04-26T13:36:56;94017.41;;;15.33;37.59
41062;BME280;26812;42.662;23.352;2023-04-26T13:39:23;94026.91;;;15.50;38.03
41062;BME280;26812;42.662;23.352;2023-04-26T13:41:49;94026.44;;;14.88;38.70
41062;BME280;26812;42.662;23.352;2023-04-26T13:44:15;93998.41;;;15.03;37.74